Finley, California
Current Conditions -  °F | °C
As of 3:56 PM on Wednesday 22 Oct 2014 (Local Time) from KUKI Reporting Station
Scattered Clouds Scattered Clouds  
Wind Chill: 72°   Ceiling: Unl
Heat Index: 72°   Visibility: 10mi
Dew Point: 50°   Wind: 3mph
Humidity: 46%   Direction: 100°E
Pressure: 30.01"   Gusts: NA
Location:  39°N, 122.87°W
Report Text: KUKI 222256Z AUTO 10003KT 10SM SCT047 22/10 A3001 RMK AO2 SLP159 T02220100
Loading
Personal Weather Stations






























Interactive Weather Map
Tropical Storm Tracking
New forecast layout! Learn more

10-Day Weather Forecast

Advertisements
Track Severe Weather on mobile